Time;durP1;ratioP1;P1;durP2;ratioP2;P2;SDS_P1;SDS_P2;PMS_P1;PMS_P2;Temp;Humidity;BMP_temperature;BMP_pressure;BME280_temperature;BME280_humidity;BME280_pressure;Samples;Min_cycle;Max_cycle;Signal;HPM_P1;HPM_P2
2022/12/10 00:01:02;;;;;;;60.53;46.80;;;2.60;99.90;;;;;;2076362;28;20108;-70
2022/12/10 00:02:03;;;;;;;63.78;47.30;;;2.60;99.90;;;;;;2076257;28;20481;-70
2022/12/10 00:03:03;;;;;;;64.28;47.13;;;2.60;99.90;;;;;;2075002;28;20737;-69
2022/12/10 00:04:04;;;;;;;60.92;47.20;;;2.60;99.90;;;;;;2076222;28;20026;-70
2022/12/10 00:05:05;;;;;;;64.55;46.90;;;2.60;99.90;;;;;;2074922;28;20058;-70
2022/12/10 00:06:09;;;;;;;59.33;45.75;;;2.60;99.90;;;;;;2076171;28;20026;-69
2022/12/10 00:07:10;;;;;;;63.58;46.47;;;2.50;99.90;;;;;;2074162;28;20441;-69
2022/12/10 00:08:10;;;;;;;59.05;44.15;;;2.50;99.90;;;;;;2073621;28;20049;-69
2022/12/10 00:09:14;;;;;;;58.38;45.83;;;2.50;99.90;;;;;;2077208;28;20037;-69
2022/12/10 00:10:14;;;;;;;59.80;45.80;;;2.50;99.90;;;;;;2075480;28;20018;-69
2022/12/10 00:11:17;;;;;;;61.33;45.88;;;2.50;99.90;;;;;;2076300;28;20041;-69
2022/12/10 00:12:17;;;;;;;61.05;46.97;;;2.50;99.90;;;;;;2075807;28;20035;-69
2022/12/10 00:13:18;;;;;;;57.03;43.08;;;2.50;99.90;;;;;;2075671;28;20029;-69
2022/12/10 00:14:18;;;;;;;61.33;44.92;;;2.50;99.90;;;;;;2076739;28;20037;-71
2022/12/10 00:15:19;;;;;;;61.05;45.75;;;2.50;99.90;;;;;;2076691;28;20432;-69
2022/12/10 00:16:22;;;;;;;55.80;43.30;;;2.40;99.90;;;;;;2076848;28;20029;-69
2022/12/10 00:17:23;;;;;;;60.15;44.72;;;2.40;99.90;;;;;;2074578;28;20087;-69
2022/12/10 00:18:23;;;;;;;54.25;41.55;;;2.40;99.90;;;;;;2072809;28;20063;-69
2022/12/10 00:19:24;;;;;;;60.40;43.78;;;2.40;99.90;;;;;;2073955;28;20107;-69
2022/12/10 00:20:24;;;;;;;60.38;45.55;;;2.40;99.90;;;;;;2076840;28;20133;-69
2022/12/10 00:21:33;;;;;;;54.25;42.15;;;2.40;99.90;;;;;;2076210;28;20057;-69
2022/12/10 00:22:34;;;;;;;57.53;45.38;;;2.40;99.90;;;;;;2075415;28;20101;-70
2022/12/10 00:23:35;;;;;;;53.95;41.72;;;2.40;99.90;;;;;;2077722;28;20034;-70
2022/12/10 00:24:36;;;;;;;58.08;44.00;;;2.40;99.90;;;;;;2076263;28;20084;-70
2022/12/10 00:25:36;;;;;;;56.75;44.33;;;2.40;99.90;;;;;;2078555;28;20025;-69
2022/12/10 00:26:38;;;;;;;65.90;46.15;;;2.30;99.90;;;;;;2077851;28;20056;-69
2022/12/10 00:27:39;;;;;;;60.17;46.05;;;2.30;99.90;;;;;;2078713;28;20037;-69
2022/12/10 00:28:40;;;;;;;56.22;42.33;;;2.30;99.90;;;;;;2077312;28;20021;-69
2022/12/10 00:29:41;;;;;;;59.40;45.03;;;2.30;99.90;;;;;;2077470;28;20025;-69
2022/12/10 00:30:41;;;;;;;59.22;45.22;;;2.30;99.90;;;;;;2076508;28;20045;-70
2022/12/10 00:31:42;;;;;;;56.38;44.17;;;2.30;99.90;;;;;;2077713;28;20036;-70
2022/12/10 00:32:42;;;;;;;56.58;42.88;;;2.30;99.90;;;;;;2076545;28;20060;-70
2022/12/10 00:33:44;;;;;;;55.25;42.70;;;2.30;99.90;;;;;;2076011;28;20083;-70
2022/12/10 00:34:44;;;;;;;58.05;44.28;;;2.20;99.90;;;;;;2078438;28;20025;-69
2022/12/10 00:35:45;;;;;;;57.72;43.28;;;2.20;99.90;;;;;;2085616;28;20019;-69
2022/12/10 00:36:48;;;;;;;64.88;44.97;;;2.20;99.90;;;;;;2086829;28;20512;-69
2022/12/10 00:37:49;;;;;;;59.67;44.10;;;2.20;99.90;;;;;;2075778;28;20141;-69
2022/12/10 00:38:50;;;;;;;59.83;44.60;;;2.20;99.90;;;;;;2077819;28;20025;-70
2022/12/10 00:39:51;;;;;;;55.95;43.35;;;2.20;99.90;;;;;;2076965;28;20053;-70
2022/12/10 00:40:51;;;;;;;59.50;44.10;;;2.20;99.90;;;;;;2078202;28;20029;-69
2022/12/10 00:41:52;;;;;;;61.65;47.25;;;2.20;99.90;;;;;;2077477;28;20457;-69
2022/12/10 00:42:52;;;;;;;59.35;43.25;;;2.20;99.90;;;;;;2085780;28;20120;-69
2022/12/10 00:43:53;;;;;;;54.70;42.67;;;2.20;99.90;;;;;;2085274;28;20037;-69
2022/12/10 00:44:53;;;;;;;54.90;42.65;;;2.20;99.90;;;;;;2078191;28;20024;-70
2022/12/10 00:45:54;;;;;;;55.65;41.83;;;2.20;99.90;;;;;;2078084;28;20021;-69
2022/12/10 00:46:54;;;;;;;57.35;42.90;;;2.20;99.90;;;;;;2076779;28;20038;-69
2022/12/10 00:47:55;;;;;;;56.13;42.83;;;2.20;99.90;;;;;;2078492;28;20033;-69
2022/12/10 00:48:57;;;;;;;56.55;43.97;;;2.10;99.90;;;;;;2070392;28;20029;-70
2022/12/10 00:49:58;;;;;;;54.22;42.30;;;2.20;99.90;;;;;;2075519;28;20693;-70
2022/12/10 00:51:04;;;;;;;53.70;42.55;;;2.20;99.90;;;;;;2078940;28;20092;-70
2022/12/10 00:52:04;;;;;;;58.53;44.45;;;2.20;99.90;;;;;;2078867;28;20061;-70
2022/12/10 00:53:05;;;;;;;56.83;43.00;;;2.10;99.90;;;;;;2077617;28;20025;-70
2022/12/10 00:54:07;;;;;;;52.95;43.10;;;2.10;99.90;;;;;;2076336;28;20556;-70
2022/12/10 00:55:08;;;;;;;56.85;42.53;;;2.10;99.90;;;;;;2075997;28;20057;-70
2022/12/10 00:56:10;;;;;;;58.70;44.17;;;2.10;99.90;;;;;;2077240;28;20041;-70
2022/12/10 00:57:10;;;;;;;64.80;46.67;;;2.10;99.90;;;;;;2078082;28;20029;-70
2022/12/10 00:58:11;;;;;;;56.83;45.55;;;2.10;99.90;;;;;;2077315;28;20040;-70
2022/12/10 00:59:11;;;;;;;55.67;43.70;;;2.10;99.90;;;;;;2078703;28;20029;-70
2022/12/10 01:00:12;;;;;;;58.38;45.10;;;2.10;99.90;;;;;;2076781;28;20401;-70
2022/12/10 01:01:21;;;;;;;54.92;44.05;;;2.10;99.90;;;;;;2076370;28;20065;-70
2022/12/10 01:02:22;;;;;;;57.35;44.38;;;2.10;99.90;;;;;;2076026;28;20018;-70
2022/12/10 01:03:22;;;;;;;54.90;42.22;;;2.10;99.90;;;;;;2076629;28;20018;-70
2022/12/10 01:04:23;;;;;;;54.72;43.47;;;2.10;99.90;;;;;;2077052;28;20024;-70
2022/12/10 01:05:24;;;;;;;61.30;46.05;;;2.10;99.90;;;;;;2075068;28;20029;-70
2022/12/10 01:06:30;;;;;;;59.78;45.75;;;2.10;99.90;;;;;;2075332;28;20986;-70
2022/12/10 01:07:31;;;;;;;57.35;43.13;;;2.10;99.90;;;;;;2075391;28;20507;-70
2022/12/10 01:08:31;;;;;;;60.70;46.10;;;2.10;99.90;;;;;;2077595;28;20973;-70
2022/12/10 01:09:32;;;;;;;62.47;47.55;;;2.10;99.90;;;;;;2076809;28;20026;-70
2022/12/10 01:10:32;;;;;;;64.00;48.85;;;2.10;99.90;;;;;;2077325;28;20029;-70
2022/12/10 01:11:37;;;;;;;64.93;48.88;;;2.10;99.90;;;;;;2075600;28;20021;-70
2022/12/10 01:12:37;;;;;;;64.75;49.85;;;2.00;99.90;;;;;;2076709;28;20052;-70
2022/12/10 01:13:39;;;;;;;69.40;50.53;;;2.00;99.90;;;;;;2077319;28;20075;-70
2022/12/10 01:14:40;;;;;;;63.13;48.50;;;2.00;99.90;;;;;;2077573;28;20059;-70
2022/12/10 01:15:40;;;;;;;63.35;49.08;;;2.00;99.90;;;;;;2076568;28;20029;-70
2022/12/10 01:16:41;;;;;;;66.80;50.80;;;2.00;99.90;;;;;;2078834;28;20050;-70
2022/12/10 01:17:41;;;;;;;66.90;50.40;;;2.00;99.90;;;;;;2074885;28;20029;-70
2022/12/10 01:18:42;;;;;;;64.28;50.03;;;2.00;99.90;;;;;;2078376;28;20117;-70
2022/12/10 01:19:43;;;;;;;67.53;50.35;;;2.00;99.90;;;;;;2078024;28;20017;-70
2022/12/10 01:20:43;;;;;;;66.10;50.65;;;2.00;99.90;;;;;;2077576;28;20076;-70
2022/12/10 01:21:44;;;;;;;67.20;51.28;;;2.00;99.90;;;;;;2078705;28;20021;-70
2022/12/10 01:22:45;;;;;;;66.18;49.38;;;2.00;99.90;;;;;;2077276;28;20021;-70
2022/12/10 01:23:48;;;;;;;69.13;52.03;;;2.00;99.90;;;;;;2078394;28;20018;-70
2022/12/10 01:24:48;;;;;;;59.72;47.13;;;2.00;99.90;;;;;;2078852;28;20357;-70
2022/12/10 01:25:49;;;;;;;64.72;49.92;;;2.00;99.90;;;;;;2077052;28;20025;-70
2022/12/10 01:26:49;;;;;;;62.40;47.72;;;2.00;99.90;;;;;;2077630;28;20034;-70
2022/12/10 01:27:50;;;;;;;63.47;49.25;;;2.00;99.90;;;;;;2076494;28;20028;-70
2022/12/10 01:28:52;;;;;;;64.68;48.28;;;2.00;99.90;;;;;;2075176;28;20053;-70
2022/12/10 01:29:52;;;;;;;63.97;48.42;;;2.00;99.90;;;;;;2076762;28;20025;-70
2022/12/10 01:30:53;;;;;;;66.40;51.30;;;2.00;99.90;;;;;;2076160;28;20045;-70
2022/12/10 01:31:55;;;;;;;66.75;50.05;;;2.00;99.90;;;;;;2074491;28;20633;-70
2022/12/10 01:32:56;;;;;;;62.42;49.40;;;2.00;99.90;;;;;;2075360;28;20489;-70
2022/12/10 01:33:57;;;;;;;64.72;48.78;;;2.00;99.90;;;;;;2075485;28;20387;-70
2022/12/10 01:34:58;;;;;;;63.53;47.92;;;2.00;99.90;;;;;;2075493;28;20029;-70
2022/12/10 01:36:08;;;;;;;67.25;50.33;;;2.00;99.90;;;;;;2077928;28;20029;-70
2022/12/10 01:37:08;;;;;;;61.63;46.65;;;2.10;99.90;;;;;;2076321;28;20065;-70
2022/12/10 01:38:09;;;;;;;56.38;44.33;;;2.00;99.90;;;;;;2076524;28;20747;-70
2022/12/10 01:39:12;;;;;;;59.05;45.15;;;2.10;99.90;;;;;;2077073;28;20782;-70
2022/12/10 01:40:13;;;;;;;68.28;49.50;;;2.10;99.90;;;;;;2077839;28;20109;-70
2022/12/10 01:41:19;;;;;;;63.90;47.78;;;2.10;99.90;;;;;;2076505;28;20119;-70
2022/12/10 01:42:19;;;;;;;65.68;47.55;;;2.10;99.90;;;;;;2077151;28;20028;-70
2022/12/10 01:43:20;;;;;;;63.55;47.58;;;2.10;99.90;;;;;;2077242;28;20025;-70
2022/12/10 01:44:20;;;;;;;64.00;47.38;;;2.20;99.90;;;;;;2075655;28;20068;-70
2022/12/10 01:45:21;;;;;;;61.75;46.50;;;2.20;99.90;;;;;;2076873;28;20067;-70
2022/12/10 01:46:23;;;;;;;61.60;47.35;;;2.20;99.90;;;;;;2076231;28;20030;-70
2022/12/10 01:47:24;;;;;;;59.08;45.95;;;2.20;99.90;;;;;;2076492;28;20071;-70
2022/12/10 01:48:24;;;;;;;60.45;47.63;;;2.20;99.90;;;;;;2076269;28;20159;-70
2022/12/10 01:49:32;;;;;;;60.15;45.88;;;2.20;99.90;;;;;;2075369;28;20111;-70
2022/12/10 01:50:32;;;;;;;56.80;44.78;;;2.20;99.90;;;;;;2076721;28;20159;-71
2022/12/10 01:51:36;;;;;;;59.08;44.50;;;2.20;99.90;;;;;;2074938;28;20025;-70
2022/12/10 01:52:37;;;;;;;57.75;44.25;;;2.20;99.90;;;;;;2073913;28;20021;-70
2022/12/10 01:53:40;;;;;;;57.33;46.55;;;2.20;99.90;;;;;;2074734;28;20723;-70
2022/12/10 01:54:44;;;;;;;58.40;45.95;;;2.30;99.90;;;;;;2076033;28;20047;-70
2022/12/10 01:55:49;;;;;;;58.20;45.72;;;2.30;99.90;;;;;;2077280;28;20458;-70
2022/12/10 01:57:25;;;;;;;58.30;46.03;;;2.20;99.90;;;;;;2075795;28;20030;-70
2022/12/10 01:58:26;;;;;;;60.08;47.13;;;2.30;99.90;;;;;;2077812;28;20037;-70
2022/12/10 01:59:28;;;;;;;56.10;43.40;;;2.30;99.90;;;;;;2076169;28;20037;-70
2022/12/10 02:00:32;;;;;;;54.75;41.20;;;2.30;99.90;;;;;;2076777;28;20481;-70
2022/12/10 02:01:41;;;;;;;60.25;45.70;;;2.30;99.90;;;;;;2077532;28;20053;-71
2022/12/10 02:02:58;;;;;;;62.15;48.13;;;2.30;99.90;;;;;;2074863;28;20029;-70
2022/12/10 02:04:14;;;;;;;55.63;43.92;;;2.30;99.90;;;;;;2076004;28;20537;-70
2022/12/10 02:05:14;;;;;;;54.70;43.95;;;2.20;99.90;;;;;;2074334;28;20021;-70
2022/12/10 02:06:26;;;;;;;56.40;43.50;;;2.30;99.90;;;;;;2076205;28;21517;-70
2022/12/10 02:08:08;;;;;;;56.63;44.70;;;2.30;99.90;;;;;;2075991;28;20026;-70
2022/12/10 02:09:50;;;;;;;51.70;41.13;;;2.30;99.90;;;;;;2053124;28;20057;-70
2022/12/10 02:11:35;;;;;;;59.30;45.50;;;2.30;99.90;;;;;;2072767;28;20219;-70
2022/12/10 02:12:56;;;;;;;54.90;42.38;;;2.20;99.90;;;;;;2075022;28;20049;-70
2022/12/10 02:14:11;;;;;;;54.33;43.03;;;2.30;99.90;;;;;;2078010;28;20081;-70
2022/12/10 02:15:39;;;;;;;59.88;46.42;;;2.30;99.90;;;;;;2074784;28;20026;-70
2022/12/10 02:16:54;;;;;;;59.40;44.08;;;2.30;99.90;;;;;;2073273;28;20044;-70
2022/12/10 02:18:17;;;;;;;56.50;44.10;;;2.30;99.90;;;;;;2076492;28;20033;-70
2022/12/10 02:19:29;;;;;;;55.28;43.47;;;2.30;99.90;;;;;;2075227;28;20033;-70
2022/12/10 02:20:36;;;;;;;55.20;43.13;;;2.30;99.90;;;;;;2076293;28;20957;-70
2022/12/10 02:21:40;;;;;;;57.80;44.20;;;2.30;99.90;;;;;;2076616;28;20068;-70
2022/12/10 02:23:01;;;;;;;56.90;44.88;;;2.30;99.90;;;;;;2075788;28;20029;-70
2022/12/10 02:24:08;;;;;;;56.42;44.28;;;2.30;99.90;;;;;;2076483;28;20014;-70
2022/12/10 02:25:12;;;;;;;57.08;45.67;;;2.30;99.90;;;;;;2076443;28;20032;-70
2022/12/10 02:26:23;;;;;;;58.92;44.95;;;2.40;99.90;;;;;;2076977;28;20022;-70
2022/12/10 02:27:27;;;;;;;59.80;45.85;;;2.40;99.90;;;;;;2075492;28;20021;-70
2022/12/10 02:28:41;;;;;;;61.15;47.25;;;2.40;99.90;;;;;;2075389;28;20750;-70
2022/12/10 02:29:44;;;;;;;55.33;44.20;;;2.40;99.90;;;;;;2075700;28;20022;-70
2022/12/10 02:30:46;;;;;;;61.15;45.88;;;2.40;99.90;;;;;;2076781;28;20669;-70
2022/12/10 02:31:56;;;;;;;53.28;42.83;;;2.40;99.90;;;;;;2074635;28;21450;-70
2022/12/10 02:32:59;;;;;;;57.25;44.38;;;2.40;99.90;;;;;;2075611;28;20026;-70
2022/12/10 02:34:04;;;;;;;54.58;44.10;;;2.40;99.90;;;;;;2077377;28;20064;-70
2022/12/10 02:35:10;;;;;;;56.70;42.70;;;2.40;99.90;;;;;;2074969;28;20545;-71
2022/12/10 02:36:13;;;;;;;57.83;45.33;;;2.40;99.90;;;;;;2075504;28;20073;-70
2022/12/10 02:37:37;;;;;;;53.40;42.00;;;2.40;99.90;;;;;;2076806;28;20474;-70
2022/12/10 02:38:40;;;;;;;56.03;43.13;;;2.40;99.90;;;;;;2076366;28;20052;-70
2022/12/10 02:39:45;;;;;;;57.33;44.58;;;2.40;99.90;;;;;;2074868;28;20029;-70
2022/12/10 02:40:49;;;;;;;56.53;43.72;;;2.40;99.90;;;;;;2075470;28;20072;-70
2022/12/10 02:41:54;;;;;;;59.45;45.53;;;2.50;99.90;;;;;;2075383;28;20021;-70
2022/12/10 02:42:55;;;;;;;49.17;39.42;;;2.50;99.90;;;;;;2077182;28;20507;-70
2022/12/10 02:43:58;;;;;;;52.10;42.92;;;2.50;99.90;;;;;;2076794;28;20441;-70
2022/12/10 02:44:59;;;;;;;52.83;43.00;;;2.50;99.90;;;;;;2076643;28;20033;-70
2022/12/10 02:46:03;;;;;;;61.28;46.55;;;2.50;99.90;;;;;;2075631;28;20052;-70
2022/12/10 02:47:06;;;;;;;58.65;46.50;;;2.50;99.90;;;;;;2077116;28;20026;-70
2022/12/10 02:48:07;;;;;;;57.83;45.30;;;2.50;99.90;;;;;;2075019;28;20041;-70
2022/12/10 02:49:11;;;;;;;60.78;47.95;;;2.50;99.90;;;;;;2077688;28;20948;-71
2022/12/10 02:50:15;;;;;;;58.28;45.00;;;2.50;99.90;;;;;;2074869;28;20025;-70
2022/12/10 02:51:16;;;;;;;57.95;44.03;;;2.50;99.90;;;;;;2075071;28;20121;-70
2022/12/10 02:52:19;;;;;;;56.63;45.20;;;2.50;99.90;;;;;;2077831;28;20033;-71
2022/12/10 02:53:19;;;;;;;58.22;43.85;;;2.50;99.90;;;;;;2077428;28;20037;-70
2022/12/10 02:54:40;;;;;;;63.03;47.28;;;2.50;99.90;;;;;;2078177;28;20030;-71
2022/12/10 02:56:15;;;;;;;61.55;47.78;;;2.50;99.90;;;;;;2075536;28;20032;-70
2022/12/10 02:57:34;;;;;;;61.50;47.50;;;2.50;99.90;;;;;;2076386;28;20032;-70
2022/12/10 02:58:56;;;;;;;60.22;47.45;;;2.50;99.90;;;;;;2076115;28;20021;-70
2022/12/10 03:00:02;;;;;;;58.80;47.33;;;2.50;99.90;;;;;;2074537;28;20067;-70
2022/12/10 03:01:07;;;;;;;64.32;49.08;;;2.50;99.90;;;;;;2076062;28;20119;-70
2022/12/10 03:02:16;;;;;;;63.28;46.80;;;2.50;99.90;;;;;;2074117;28;20060;-70
2022/12/10 03:03:49;;;;;;;68.80;47.20;;;2.50;99.90;;;;;;2075993;28;20049;-70
2022/12/10 03:05:03;;;;;;;58.42;45.40;;;2.50;99.90;;;;;;2074402;28;20439;-70
2022/12/10 03:06:12;;;;;;;54.60;43.40;;;2.40;99.90;;;;;;2077422;28;20026;-70
2022/12/10 03:07:23;;;;;;;59.87;46.07;;;2.50;99.90;;;;;;2076935;28;20013;-70
2022/12/10 03:08:47;;;;;;;58.33;45.05;;;2.50;99.90;;;;;;2075094;28;20260;-70
2022/12/10 03:10:01;;;;;;;57.65;42.83;;;2.50;99.90;;;;;;2075901;28;20034;-70
2022/12/10 03:11:17;;;;;;;56.38;45.63;;;2.50;99.90;;;;;;2077201;28;20040;-70
2022/12/10 03:12:36;;;;;;;58.75;45.13;;;2.50;99.90;;;;;;2076234;28;20056;-70
2022/12/10 03:14:08;;;;;;;59.10;45.17;;;2.50;99.90;;;;;;2075799;28;20025;-70
2022/12/10 03:15:11;;;;;;;63.05;46.15;;;2.50;99.90;;;;;;2077459;28;20037;-70
2022/12/10 03:16:13;;;;;;;56.75;46.38;;;2.50;99.90;;;;;;2077397;28;20633;-70
2022/12/10 03:17:15;;;;;;;56.63;44.45;;;2.50;99.90;;;;;;2076364;28;20374;-70
2022/12/10 03:18:18;;;;;;;60.53;46.78;;;2.50;99.90;;;;;;2074982;28;20030;-71
2022/12/10 03:19:24;;;;;;;62.78;47.17;;;2.60;99.90;;;;;;2074315;28;20033;-70
2022/12/10 03:20:26;;;;;;;57.65;45.10;;;2.60;99.90;;;;;;2076795;28;20374;-70
2022/12/10 03:21:29;;;;;;;59.25;47.80;;;2.60;99.90;;;;;;2076290;28;20053;-70
2022/12/10 03:22:33;;;;;;;58.13;45.88;;;2.60;99.90;;;;;;2074451;28;20037;-70
2022/12/10 03:23:40;;;;;;;58.92;44.58;;;2.60;99.90;;;;;;2077631;28;20013;-70
2022/12/10 03:24:42;;;;;;;58.08;44.28;;;2.60;99.90;;;;;;2076220;28;20076;-70
2022/12/10 03:25:45;;;;;;;58.38;45.08;;;2.60;99.90;;;;;;2078036;28;20508;-70
2022/12/10 03:26:49;;;;;;;57.90;45.08;;;2.60;99.90;;;;;;2074864;28;20109;-70
2022/12/10 03:27:53;;;;;;;57.95;45.58;;;2.70;99.90;;;;;;2076414;28;20022;-70
2022/12/10 03:29:06;;;;;;;56.30;42.97;;;2.70;99.90;;;;;;2076753;28;20307;-70
2022/12/10 03:30:07;;;;;;;55.90;43.83;;;2.70;99.90;;;;;;2076497;28;20124;-70
2022/12/10 03:31:12;;;;;;;57.65;44.47;;;2.70;99.90;;;;;;2077446;28;20033;-70
2022/12/10 03:32:14;;;;;;;56.70;43.53;;;2.70;99.90;;;;;;2077414;28;20387;-70
2022/12/10 03:33:15;;;;;;;56.78;43.47;;;2.70;99.90;;;;;;2076145;28;20029;-70
2022/12/10 03:34:16;;;;;;;54.97;44.45;;;2.70;99.90;;;;;;2075148;28;20038;-70
2022/12/10 03:35:20;;;;;;;52.63;41.42;;;2.70;99.90;;;;;;2075518;28;20025;-71
2022/12/10 03:36:21;;;;;;;53.33;41.90;;;2.70;99.90;;;;;;2075765;28;20897;-70
2022/12/10 03:37:23;;;;;;;55.92;44.33;;;2.70;99.90;;;;;;2076698;28;20759;-70
2022/12/10 03:38:25;;;;;;;55.92;43.00;;;2.80;99.90;;;;;;2073447;28;20027;-70
2022/12/10 03:39:26;;;;;;;58.72;46.20;;;2.80;99.90;;;;;;2074975;28;20053;-70
2022/12/10 03:40:26;;;;;;;57.00;44.95;;;2.80;99.90;;;;;;2075737;28;20036;-70
2022/12/10 03:41:27;;;;;;;53.30;41.63;;;2.80;99.90;;;;;;2074497;28;20024;-70
2022/12/10 03:42:28;;;;;;;59.50;43.97;;;2.80;99.90;;;;;;2074211;28;20125;-70
2022/12/10 03:43:28;;;;;;;56.10;43.65;;;2.80;99.90;;;;;;2076906;28;20030;-70
2022/12/10 03:44:35;;;;;;;54.88;43.78;;;2.80;99.90;;;;;;2075860;28;20385;-70
2022/12/10 03:45:35;;;;;;;57.78;44.65;;;2.80;99.90;;;;;;2074268;28;20044;-70
2022/12/10 03:46:36;;;;;;;53.15;43.45;;;2.80;99.90;;;;;;2076333;28;20071;-70
2022/12/10 03:47:37;;;;;;;56.33;45.25;;;2.80;99.90;;;;;;2076017;28;20068;-70
2022/12/10 03:48:37;;;;;;;55.72;44.17;;;2.80;99.90;;;;;;2076875;28;20033;-70
2022/12/10 03:49:38;;;;;;;61.30;44.40;;;2.80;99.90;;;;;;2075978;28;20469;-70
2022/12/10 03:50:38;;;;;;;56.55;43.78;;;2.80;99.90;;;;;;2076216;28;20112;-70
2022/12/10 03:51:39;;;;;;;58.85;43.95;;;2.80;99.90;;;;;;2077163;28;20084;-70
2022/12/10 03:52:40;;;;;;;57.90;45.97;;;2.80;99.90;;;;;;2077189;28;20026;-70
2022/12/10 03:53:40;;;;;;;54.97;43.20;;;2.80;99.90;;;;;;2076824;28;20025;-70
2022/12/10 03:54:41;;;;;;;51.70;41.70;;;2.90;99.90;;;;;;2076425;28;20116;-70
2022/12/10 03:55:41;;;;;;;56.00;44.00;;;2.90;99.90;;;;;;2077681;28;20072;-70
2022/12/10 03:56:42;;;;;;;54.75;42.58;;;2.90;99.90;;;;;;2086421;28;20017;-70
2022/12/10 03:57:43;;;;;;;61.72;46.70;;;2.90;99.90;;;;;;2087006;28;20401;-70
2022/12/10 03:58:43;;;;;;;52.28;42.22;;;2.90;99.90;;;;;;2078746;28;20025;-70
2022/12/10 03:59:44;;;;;;;51.75;40.53;;;2.90;99.90;;;;;;2079516;28;20060;-70
2022/12/10 04:00:44;;;;;;;55.00;43.92;;;2.90;99.90;;;;;;2076624;28;20550;-70
2022/12/10 04:01:45;;;;;;;59.25;44.60;;;2.90;99.90;;;;;;2077714;28;20018;-71
2022/12/10 04:02:46;;;;;;;54.38;42.72;;;2.90;99.90;;;;;;2078681;28;20037;-70
2022/12/10 04:03:46;;;;;;;56.05;43.88;;;2.90;99.90;;;;;;2080291;28;20026;-70
2022/12/10 04:04:47;;;;;;;56.70;43.78;;;2.90;99.90;;;;;;2078886;28;20025;-70
2022/12/10 04:05:47;;;;;;;54.40;42.30;;;2.90;99.90;;;;;;2079570;28;20094;-71
2022/12/10 04:06:48;;;;;;;50.85;41.72;;;2.90;99.90;;;;;;2079167;28;20036;-70
2022/12/10 04:07:48;;;;;;;54.45;42.88;;;2.90;99.90;;;;;;2076965;28;20100;-70
2022/12/10 04:08:51;;;;;;;53.63;44.03;;;2.90;99.90;;;;;;2079016;28;20472;-70
2022/12/10 04:09:51;;;;;;;52.20;42.15;;;3.00;99.90;;;;;;2079273;28;20071;-70
2022/12/10 04:10:52;;;;;;;55.22;42.40;;;3.00;99.90;;;;;;2077181;28;20072;-70
2022/12/10 04:11:56;;;;;;;53.30;41.00;;;3.00;99.90;;;;;;2078343;28;20040;-70
2022/12/10 04:16:58;;;;;;;56.35;43.25;;;3.00;99.90;;;;;;2077395;28;20033;-70
2022/12/10 04:17:58;;;;;;;54.08;41.03;;;3.00;99.90;;;;;;2078012;28;20025;-70
2022/12/10 04:19:02;;;;;;;56.28;43.95;;;3.00;99.90;;;;;;2079165;28;20029;-70
2022/12/10 04:20:03;;;;;;;52.15;41.30;;;3.00;99.90;;;;;;2079187;28;20040;-70
2022/12/10 04:27:39;;;;;;;52.90;42.58;;;3.00;99.90;;;;;;2080101;28;20056;-70
2022/12/10 04:28:40;;;;;;;52.47;42.83;;;3.00;99.90;;;;;;2079337;28;20024;-71
2022/12/10 04:29:40;;;;;;;50.30;41.13;;;3.00;99.90;;;;;;2078213;28;20033;-71
2022/12/10 04:30:41;;;;;;;50.72;39.63;;;3.00;99.90;;;;;;2077785;28;20080;-70
2022/12/10 04:31:41;;;;;;;49.83;40.13;;;3.00;99.90;;;;;;2077704;28;20072;-70
2022/12/10 04:32:42;;;;;;;48.15;40.05;;;3.00;99.90;;;;;;2080266;28;20672;-70
2022/12/10 04:33:43;;;;;;;51.65;40.60;;;3.00;99.90;;;;;;2077522;28;20025;-70
2022/12/10 04:34:43;;;;;;;50.15;40.05;;;3.10;99.90;;;;;;2077935;28;20705;-70
2022/12/10 04:35:44;;;;;;;55.63;42.70;;;3.00;99.90;;;;;;2077161;28;20056;-70
2022/12/10 04:36:44;;;;;;;49.35;38.70;;;3.10;99.90;;;;;;2079138;28;20053;-70
2022/12/10 04:37:45;;;;;;;46.78;38.40;;;3.10;99.90;;;;;;2077957;28;20018;-70
2022/12/10 04:38:46;;;;;;;51.03;39.35;;;3.10;99.90;;;;;;2078781;28;20026;-70
2022/12/10 04:39:48;;;;;;;47.55;38.13;;;3.10;99.90;;;;;;2078703;28;20029;-70
2022/12/10 04:40:49;;;;;;;45.10;36.60;;;3.10;99.90;;;;;;2077250;28;20033;-70
2022/12/10 04:41:50;;;;;;;48.85;38.05;;;3.10;99.90;;;;;;2079002;28;20026;-71
2022/12/10 04:42:50;;;;;;;46.42;38.10;;;3.10;99.90;;;;;;2077053;28;20034;-71
2022/12/10 04:43:52;;;;;;;44.42;38.05;;;3.10;99.90;;;;;;2079144;28;20021;-70
2022/12/10 04:44:53;;;;;;;45.20;36.78;;;3.10;99.90;;;;;;2079177;28;20108;-70
2022/12/10 04:45:56;;;;;;;47.50;38.58;;;3.10;99.90;;;;;;2076408;28;20481;-71
2022/12/10 04:46:57;;;;;;;45.13;36.65;;;3.10;99.90;;;;;;2080115;28;20049;-71
2022/12/10 04:47:58;;;;;;;44.05;36.75;;;3.20;99.90;;;;;;2078597;28;20057;-70
2022/12/10 04:48:58;;;;;;;46.85;37.22;;;3.20;99.90;;;;;;2079824;28;20025;-70
2022/12/10 04:49:59;;;;;;;46.63;36.35;;;3.10;99.90;;;;;;2077810;28;20458;-70
2022/12/10 04:51:00;;;;;;;43.47;35.83;;;3.20;99.90;;;;;;2077563;28;20393;-70
2022/12/10 04:52:01;;;;;;;49.50;38.67;;;3.20;99.90;;;;;;2078960;28;20104;-71
2022/12/10 04:53:01;;;;;;;45.97;36.83;;;3.20;99.90;;;;;;2080476;28;20041;-71
2022/12/10 04:54:03;;;;;;;43.03;34.88;;;3.20;99.90;;;;;;2083312;28;20112;-71
2022/12/10 04:55:04;;;;;;;40.83;34.05;;;3.20;99.90;;;;;;2084146;28;20437;-71
2022/12/10 04:56:05;;;;;;;41.03;35.05;;;3.20;99.90;;;;;;2080675;28;20027;-70
2022/12/10 04:57:06;;;;;;;39.88;33.80;;;3.20;99.90;;;;;;2078105;28;20034;-70
2022/12/10 04:58:07;;;;;;;39.42;32.83;;;3.20;99.90;;;;;;2078537;28;20025;-70
2022/12/10 04:59:08;;;;;;;37.60;31.17;;;3.10;99.90;;;;;;2079360;28;20033;-70
2022/12/10 05:00:10;;;;;;;41.92;33.45;;;3.10;99.90;;;;;;2077289;28;20747;-70
2022/12/10 05:01:12;;;;;;;43.38;35.97;;;3.10;99.90;;;;;;2078550;28;20064;-70
2022/12/10 05:02:13;;;;;;;46.50;34.63;;;3.10;99.90;;;;;;2076742;28;20025;-70
2022/12/10 05:03:13;;;;;;;40.25;31.80;;;3.10;99.90;;;;;;2077979;28;20354;-70
2022/12/10 05:04:16;;;;;;;41.00;33.15;;;3.10;99.90;;;;;;2079660;28;20098;-70
2022/12/10 05:05:17;;;;;;;37.13;30.80;;;3.10;99.90;;;;;;2077100;28;20140;-70
2022/12/10 05:06:19;;;;;;;37.10;30.85;;;3.10;99.90;;;;;;2076954;28;20025;-70
2022/12/10 05:07:19;;;;;;;37.08;30.35;;;3.10;99.90;;;;;;2083139;28;20122;-70
2022/12/10 05:08:20;;;;;;;39.00;30.60;;;3.10;99.90;;;;;;2084476;28;20068;-70
2022/12/10 05:09:20;;;;;;;37.03;30.67;;;3.10;99.90;;;;;;2078489;28;20021;-70
2022/12/10 05:10:21;;;;;;;35.08;30.08;;;3.10;99.90;;;;;;2075655;28;20022;-70
2022/12/10 05:11:26;;;;;;;37.42;30.30;;;3.10;99.90;;;;;;2078054;28;20037;-70
2022/12/10 05:12:27;;;;;;;36.03;30.00;;;3.10;99.90;;;;;;2077278;28;20030;-70
2022/12/10 05:13:28;;;;;;;34.25;28.33;;;3.10;99.90;;;;;;2077608;28;20072;-70
2022/12/10 05:14:28;;;;;;;38.67;31.08;;;3.10;99.90;;;;;;2076261;28;20029;-70
2022/12/10 05:15:29;;;;;;;41.85;33.30;;;3.10;99.90;;;;;;2075063;28;20073;-70
2022/12/10 05:16:32;;;;;;;39.92;33.55;;;3.10;99.90;;;;;;2076401;28;20045;-70
2022/12/10 05:17:33;;;;;;;39.60;33.22;;;3.10;99.90;;;;;;2077270;28;20149;-70
2022/12/10 05:18:35;;;;;;;40.05;33.05;;;3.20;99.90;;;;;;2075076;28;20099;-70
2022/12/10 05:19:35;;;;;;;40.42;33.17;;;3.10;99.90;;;;;;2076284;28;20029;-70
2022/12/10 05:20:36;;;;;;;38.72;31.58;;;3.20;99.90;;;;;;2078908;28;20030;-70
2022/12/10 05:24:17;;;;;;;39.33;31.80;;;3.20;99.90;;;;;;2075641;28;20123;-70
2022/12/10 05:25:17;;;;;;;37.65;30.98;;;3.20;99.90;;;;;;2077784;28;20025;-70
2022/12/10 05:26:23;;;;;;;39.15;33.65;;;3.10;99.90;;;;;;2077675;28;20155;-71
2022/12/10 05:27:23;;;;;;;38.70;32.88;;;3.20;99.90;;;;;;2078555;28;20021;-70
2022/12/10 05:28:24;;;;;;;41.00;35.10;;;3.20;99.90;;;;;;2077274;28;20018;-70
2022/12/10 05:29:25;;;;;;;34.08;29.65;;;3.20;99.90;;;;;;2076579;28;20444;-71
2022/12/10 05:30:26;;;;;;;43.88;33.97;;;3.20;99.90;;;;;;2075535;28;20129;-70
2022/12/10 05:31:29;;;;;;;39.22;32.80;;;3.20;99.90;;;;;;2076383;28;20075;-70
2022/12/10 05:32:29;;;;;;;42.75;34.30;;;3.20;99.90;;;;;;2077192;28;21828;-70
2022/12/10 05:33:30;;;;;;;40.65;33.20;;;3.10;99.90;;;;;;2076700;28;20456;-70
2022/12/10 05:34:31;;;;;;;37.72;32.47;;;3.10;99.90;;;;;;2076677;28;20048;-70
2022/12/10 05:35:32;;;;;;;42.28;33.35;;;3.10;99.90;;;;;;2076869;28;20117;-70
2022/12/10 05:36:32;;;;;;;35.60;30.20;;;3.10;99.90;;;;;;2077124;28;20113;-70
2022/12/10 05:37:33;;;;;;;42.03;32.88;;;3.10;99.90;;;;;;2077393;28;20464;-70
2022/12/10 05:38:34;;;;;;;39.42;31.42;;;3.10;99.90;;;;;;2077989;28;20512;-70
2022/12/10 05:39:35;;;;;;;41.55;33.17;;;3.10;99.90;;;;;;2077053;28;20097;-70
2022/12/10 05:40:36;;;;;;;41.33;32.30;;;3.10;99.90;;;;;;2077948;28;20033;-70